Beaux Arts, Washington
Current Conditions -  °F | °C
As of 8:53 PM on Wednesday 22 Oct 2014 (Local Time) from KBFI Reporting Station
Moderate Rain Moderate Rain  
Wind Chill: 57°   Ceiling: 4400
Heat Index: 57°   Visibility: 3mi
Dew Point: 50°   Wind: 9mph
Humidity: 77%   Direction: 180°S
Pressure: 29.61"   Gusts: 22mph
Location:  47.6186°N, 122.204°W
Report Text: KBFI 230353Z 18008G19KT 3SM RA SCT030 BKN044 OVC060 14/10 A2961 RMK AO2 SLP028 P0016 T01390100
Loading
Personal Weather Stations






























Interactive Weather Map
Tropical Storm Tracking
New forecast layout! Learn more

10-Day Weather Forecast

Advertisements
Track Severe Weather on mobile